Palestine, TX

7:21 AM CST on December 28, 2014 (GMT -0600)
Athens | Change Station
CLOSE
Current Station
Airport
Location: Athens,
Elevation: 443 ft
Nearby Weather Stations

Elev 443 ft 32.16 °N, 95.83 °W | Updated 26 minutes ago

Rain
Rain
36 °F
Feels Like 29 °F
N
8
Wind Variable Wind from NNW

Today
High -- | Low -- °F
--% Chance of Precip.
Yesterday
High -- | Low -- °F
Precip. -- in
7:21 AM 5:26 PM
Waxing Crescent, 47% visible
Pressure 30.25 in
Visibility 10.0 miles
Clouds Overcast 8000 ft
Windchill 29 °F
Dew Point 28 °F
Humidity 75%
Rainfall 0.00 in
Snow Depth Not available.
UV 0 out of 12
Pollen 9.60 out of 12
Air Quality Not available.
Flu Activity Not available.
METAR KF44 281255Z AUTO 34007KT 10SM OVC080 02/M02 A3025 RMK AO2

More Conditions Fewer Conditions

Pressure 30.25 in
Visibility 10.0 miles
Clouds Overcast 8000 ft
Windchill 29 °F
Dew Point 28 °F
Humidity 75%
Rainfall 0.00 in
Snow Depth Not available.
UV 0 out of 12
Pollen 9.60 out of 12
Air Quality Not available.
Flu Activity Not available.
METAR KF44 281255Z AUTO 34007KT 10SM OVC080 02/M02 A3025 RMK AO2

More Conditions Fewer Conditions

Nowcast | as of 7:01 am CST on December 28, 2014

Light rain will dampen a few locations south of a line from Comanche to Hillsboro to Athens through 9 am. Only trace rainfall amounts are expected. Otherwise...cloudy and cold conditions will prevail through 9 am with temperatures holding in the 30s.

×

10-Day Weather Forecast

Almanac

Astronomy

Dec. 28, 2014 Rise Set
Actual Time
Civil Twilight
Nautical Twilight
Astronomical Twilight
Moon
Length of Visible Light
Length of Day
Tomorrow will be .
, % of the Moon is Illuminated

Today's Extremes

State Highs State Lows

Community

WunderPhotos

Upload Photos

1,781,258 photos uploaded!

WunderBlogs® & News

Nearby

Air Quality

  Air Quality AQ Index Pollutant
Not available.

Snow Depth

Station Depth Elevation

Earthquake Activity

City Distance Mag. Time & Date
Minimum magnitude displayed is 2.5.

Coastal Water Temperatures

Place Temperature

Nearby Weather Stations